Aérodrome :
LOGIN :

S'inscrire | Disclaimer

   EN    FR    IT 

 










Légende :    VFR   VFR Marginal   IFR   IFR Intensif   IFR Très Intensif
Visi : 
Plafond : 
>= 8 km
>= 3000ft
5 à 8 km
1000 à 3000 ft
1500m à 5 km
500 à 1000 ft
800 à 1500m
200 à 500 ft
< 800m
< 200 ft
Symboles :   Orages  Brouillard  Fortes neiges  Fortes précipitations  Vent > 20 kt
SIGMETs :   Divers  Orages  Givrage  Turbulence  Onde Orograph.  Cendres Volcan.






- Altitude de l'aérodrome : 844 ft
- Code IATA : OSR


LKMT - Ostrava-Mosnov

DERNIER METAR :
  • 101500Z 34005KT CAVOK 03/M04 Q1023 NOSIG

METARs EXPIRÉS :
  • 101430Z 35006KT CAVOK 03/M04 Q1022 NOSIG
  • 101400Z 36008KT CAVOK 03/M04 Q1022 NOSIG
  • 101330Z 36010KT CAVOK 04/M03 Q1022 NOSIG
  • 101300Z 36008KT 320V020 9999 FEW047 05/M04 Q1021 NOSIG
  • 101230Z 35009KT 320V020 9999 FEW045 05/M04 Q1021 NOSIG

TAF TAF LKMT
Valide du 10 à 12h jusqu'au 11 à 18h UTC


101100Z 1012/1118 36007KT 9999 BKN035
BECMG 1018/1021 VRB02KT CAVOK
BECMG 1100/1102 2000 MIFG NSC
TEMPO 1102/1109 1200 BCFG SCT002
PROB30
TEMPO 1104/1108 0500 FZFG VV002
BECMG 1109/1111 22008KT CAVOK



MET'MAP, la Météo Aéronautique d'un coup d'oeil ! - Copyright ORBIFLY Décembre 2007 - Disclaimer

ORBIFLY MET'MAP TEAM :

Programmation & Développement : Alexandra Zaïnal
Sur une idée originale de : Baudouin d'Aumeries
Assistance à la programmation : Marc-Olivier Méhu
Soutien technique & logistique : Manuel Goepfert

Contact : metmap@orbifly.com




SOURCES & CREDITS :

   NOAA